Accueil
METAR-TAF:

METAR-TAF

Aéroports :

Aéroport international du Chūbu

Nagoya, Japon

latitude: 34-51-30N, longitude: 136-48-19E, altitude: 5 m

Observation

Le bulletin a été fait il y a 18 minutes, à 19:30 UTC
Vent 19 kt de nord-ouest
Température 11°C
Humidité 58%
Pression 1017 hPa
Visibilité 10 km ou plus
Quelques nuages à une hauteur de 3000 ft

METAR: RJGG 081930Z 32019KT 9999 FEW030 11/03 Q1017 NOSIG

Heure: 04:48 (19:48 UTC)

Prévision

Le bulletin a été fait il y a 2 heures et 43 minutes, à 17:05 UTC
Prévision valable du 08 à 18 UTC au 10 à 00 UTC
Vent 18 kt de nord-ouest
Visibilité 10 km ou plus
Quelques nuages à une hauteur de 3000 ft
Evoluant progressivement
du 09 à 00 UTC au 09 à 02 UTC
Vent 8 kt de ouest/nord-ouest
Evoluant progressivement
du 09 à 09 UTC au 09 à 12 UTC
Vent 25 kt de nord-ouest

TAF: RJGG 081705Z 0818/1000 32018KT 9999 FEW030 BECMG 0900/0902 30008KT BECMG 0909/0912 32025KT

Observations et prévisions météorologiques de plus de 4000 aéroports (messages METAR et TAF).

Les stations disponibles sont représentées par des disques jaunes et rouges sur la carte.

Passer la souris dessus pour voir le nom de la station.

Cliquer dessus pour voir les observations et prévisions météorologiques.

Pour changer de carte: cliquez sur les boutons verts avec une croix noire pour zoomer, sur le bouton vert avec un tiret pour effectuer un zoom arrière, ou sur les flèches vertes pour les cartes adjacentes.


METAR-TAF: